Time;durP1;ratioP1;P1;durP2;ratioP2;P2;SDS_P1;SDS_P2;PMS_P1;PMS_P2;Temp;Humidity;BMP_temperature;BMP_pressure;BME280_temperature;BME280_humidity;BME280_pressure;Samples;Min_cycle;Max_cycle;Signal;HPM_P1;HPM_P2
2021/12/07 00:00:12;;;;;;;9.07;6.43;;;;;;;1.04;86.00;100415.72;5053142;28;20043;-79
2021/12/07 00:02:38;;;;;;;8.50;7.03;;;;;;;1.06;86.25;100410.63;5051579;28;20090;-80
2021/12/07 00:05:04;;;;;;;8.80;7.20;;;;;;;1.09;86.13;100420.03;5052835;28;20495;-80
2021/12/07 00:07:30;;;;;;;9.57;7.30;;;;;;;1.07;85.86;100414.91;5051391;28;20021;-80
2021/12/07 00:09:56;;;;;;;11.30;7.83;;;;;;;1.12;86.14;100425.19;5052447;28;20021;-79
2021/12/07 00:12:21;;;;;;;10.97;8.10;;;;;;;1.13;86.58;100426.91;5053468;28;20074;-80
2021/12/07 00:14:47;;;;;;;11.03;8.90;;;;;;;1.14;86.33;100428.59;5051794;28;20028;-80
2021/12/07 00:17:12;;;;;;;11.60;9.40;;;;;;;1.16;86.70;100426.91;5051738;28;20162;-79
2021/12/07 00:19:38;;;;;;;12.47;9.17;;;;;;;1.16;86.58;100416.66;5052406;28;20025;-80
2021/12/07 00:22:06;;;;;;;14.50;11.50;;;;;;;1.16;86.54;100434.59;5051321;28;20033;-80
2021/12/07 00:24:32;;;;;;;13.03;10.63;;;;;;;1.20;86.79;100437.19;5051445;28;20377;-80
2021/12/07 00:26:57;;;;;;;17.77;13.73;;;;;;;1.21;86.70;100427.78;5051328;28;20088;-79
2021/12/07 00:29:23;;;;;;;14.60;12.20;;;;;;;1.22;86.61;100426.94;5034251;28;20021;-80
2021/12/07 00:31:56;;;;;;;17.00;12.40;;;;;;;1.21;86.72;100431.22;5051623;28;20442;-80
2021/12/07 00:36:53;;;;;;;;;;;;;;;1.35;86.68;100433.88;5052158;28;20037;-80
2021/12/07 00:39:23;;;;;;;17.80;12.67;;;;;;;1.25;86.53;100442.34;5051273;28;19919;-80
2021/12/07 00:41:50;;;;;;;20.10;13.87;;;;;;;1.25;86.69;100447.47;5051061;28;20332;-80
2021/12/07 00:44:18;;;;;;;20.10;14.87;;;;;;;1.23;87.00;100444.03;5052271;28;20040;-79
2021/12/07 00:46:43;;;;;;;17.87;14.27;;;;;;;1.22;87.08;100447.44;5051335;28;20026;-79
2021/12/07 00:49:09;;;;;;;19.40;15.07;;;;;;;1.23;87.18;100443.19;5051293;28;20390;-80
2021/12/07 00:51:34;;;;;;;22.07;15.77;;;;;;;1.24;87.21;100452.59;5051519;28;20044;-80
2021/12/07 00:54:00;;;;;;;20.77;16.07;;;;;;;1.23;87.12;100449.16;5050900;28;20029;-80
2021/12/07 00:56:25;;;;;;;22.03;16.00;;;;;;;1.25;87.46;100451.75;5053403;28;20025;-79
2021/12/07 00:58:51;;;;;;;20.77;15.87;;;;;;;1.26;87.67;100456.88;5052057;28;20535;-80
2021/12/07 01:01:18;;;;;;;24.90;17.20;;;;;;;1.27;87.65;100460.31;5050921;28;20572;-79
2021/12/07 01:03:44;;;;;;;20.83;16.30;;;;;;;1.29;87.79;100459.44;5052487;28;20048;-80
2021/12/07 01:06:24;;;;;;;23.63;16.53;;;;;;;1.31;88.06;100473.13;5050770;28;20383;-80
2021/12/07 01:25:16;;;;;;;26.10;16.90;;;;;;;1.49;88.79;100504.84;5018506;28;20538;-80
2021/12/07 01:27:44;;;;;;;27.47;17.43;;;;;;;1.51;89.09;100503.16;5049535;28;20032;-80
2021/12/07 01:30:31;;;;;;;26.20;17.20;;;;;;;1.54;89.30;100508.28;5051722;28;20031;-80
2021/12/07 01:35:45;;;;;;;28.60;17.27;;;;;;;1.59;89.41;100514.31;5053084;28;20132;-80
2021/12/07 01:41:40;;;;;;;23.60;15.60;;;;;;;1.64;89.62;100527.16;5050353;28;20127;-80
2021/12/07 01:59:34;;;;;;;29.37;14.40;;;;;;;1.75;89.43;100551.16;5051075;28;20069;-80
2021/12/07 02:02:03;;;;;;;29.07;15.00;;;;;;;1.77;89.53;100552.03;5047430;28;20048;-80
2021/12/07 02:04:28;;;;;;;27.13;14.97;;;;;;;1.81;89.73;100558.03;5050643;28;20017;-80
2021/12/07 02:06:53;;;;;;;29.13;14.80;;;;;;;1.82;89.74;100552.06;5050750;28;20472;-80
2021/12/07 02:09:19;;;;;;;34.07;14.60;;;;;;;1.85;89.75;100556.34;5050881;28;20023;-79
2021/12/07 02:11:48;;;;;;;31.00;15.67;;;;;;;1.87;90.04;100565.78;5049908;28;20384;-79
2021/12/07 02:14:17;;;;;;;30.93;15.23;;;;;;;1.87;90.09;100565.78;5031189;28;20021;-79
2021/12/07 02:16:48;;;;;;;30.13;14.93;;;;;;;1.90;90.15;100576.03;5049879;28;20073;-79
2021/12/07 02:19:14;;;;;;;29.38;13.70;;;;;;;1.92;90.28;100574.34;5049175;28;20020;-79
2021/12/07 02:21:40;;;;;;;30.80;13.77;;;;;;;1.96;90.09;100580.38;5051111;28;20444;-79
2021/12/07 02:24:05;;;;;;;31.00;14.80;;;;;;;1.95;90.36;100579.50;5049957;28;20028;-79
2021/12/07 02:26:31;;;;;;;28.07;13.17;;;;;;;1.97;90.29;100588.06;5050407;28;20028;-80
2021/12/07 02:28:57;;;;;;;25.17;13.03;;;;;;;1.99;90.10;100594.91;5048500;28;20116;-79
2021/12/07 02:31:23;;;;;;;27.90;13.13;;;;;;;1.96;90.17;100586.34;5054334;28;20037;-79
2021/12/07 02:33:48;;;;;;;27.00;12.73;;;;;;;1.97;90.16;100588.06;5049446;28;21897;-79
2021/12/07 02:36:13;;;;;;;27.57;12.17;;;;;;;1.99;90.11;100589.78;5050618;28;20055;-80
2021/12/07 02:38:39;;;;;;;30.37;12.53;;;;;;;1.99;90.21;100603.44;5049920;28;20349;-80
2021/12/07 02:41:04;;;;;;;27.70;12.97;;;;;;;1.99;89.92;100600.03;5048956;28;20041;-80
2021/12/07 02:43:30;;;;;;;24.63;11.70;;;;;;;2.00;90.06;100606.88;5049377;28;20065;-79
2021/12/07 02:45:55;;;;;;;27.13;11.00;;;;;;;2.01;90.01;100614.56;5049604;28;20639;-79
2021/12/07 02:48:22;;;;;;;28.33;10.97;;;;;;;2.03;89.96;100612.03;5048680;28;20037;-80
2021/12/07 02:50:50;;;;;;;22.00;8.80;;;;;;;2.02;90.09;100618.03;5050095;28;20056;-80
2021/12/07 02:53:15;;;;;;;24.47;9.10;;;;;;;2.04;90.07;100618.91;5048736;28;20124;-80
2021/12/07 02:55:41;;;;;;;24.67;8.50;;;;;;;2.03;90.10;100623.16;5048617;28;20532;-79
2021/12/07 02:58:06;;;;;;;29.20;8.43;;;;;;;2.03;90.20;100623.16;5049625;28;20401;-79
2021/12/07 03:00:41;;;;;;;29.93;8.27;;;;;;;2.03;89.90;100638.53;5049814;28;20071;-80
2021/12/07 03:03:10;;;;;;;21.87;7.57;;;;;;;2.02;90.29;100635.97;5049092;28;20094;-79
2021/12/07 03:05:55;;;;;;;24.07;7.30;;;;;;;2.04;90.01;100647.13;5052053;28;20021;-79
2021/12/07 03:27:13;;;;;;;20.87;5.20;;;;;;;2.03;89.65;100679.59;5050387;28;20490;-79
2021/12/07 03:29:38;;;;;;;27.33;6.47;;;;;;;2.03;89.60;100671.91;5050516;28;20025;-79
2021/12/07 03:32:04;;;;;;;26.27;5.60;;;;;;;2.04;90.05;100676.19;5056940;28;20025;-79
2021/12/07 03:34:29;;;;;;;24.57;5.10;;;;;;;2.01;89.86;100670.19;5050092;28;20025;-80
2021/12/07 03:36:55;;;;;;;21.77;5.63;;;;;;;2.00;89.74;100676.16;5051166;28;20108;-80
2021/12/07 03:39:20;;;;;;;20.43;4.90;;;;;;;2.01;89.72;100676.16;5050274;28;20079;-79
2021/12/07 03:41:45;;;;;;;26.10;5.40;;;;;;;2.01;89.91;100686.41;5049720;28;20471;-79
2021/12/07 03:44:11;;;;;;;22.17;4.67;;;;;;;2.01;89.85;100690.72;5050304;28;20103;-79
2021/12/07 03:46:36;;;;;;;23.97;4.87;;;;;;;2.01;89.82;100688.16;5049186;28;20043;-79
2021/12/07 03:49:03;;;;;;;25.80;4.73;;;;;;;2.00;90.06;100704.38;5050301;28;20047;-79
2021/12/07 03:51:28;;;;;;;27.50;5.30;;;;;;;2.00;89.84;100704.38;5057127;28;20068;-79
2021/12/07 03:53:53;;;;;;;19.53;4.23;;;;;;;2.01;90.14;100704.38;5054474;28;20539;-79
2021/12/07 03:56:19;;;;;;;26.83;4.60;;;;;;;2.01;89.77;100708.66;5057348;28;20021;-80
2021/12/07 03:58:44;;;;;;;23.17;4.33;;;;;;;2.01;89.95;100712.09;5053851;28;20384;-80
2021/12/07 04:01:11;;;;;;;24.73;4.13;;;;;;;1.99;89.53;100713.78;5053570;28;20131;-80
2021/12/07 04:03:37;;;;;;;23.67;4.43;;;;;;;1.97;89.32;100716.34;5053505;28;20464;-79
2021/12/07 04:06:06;;;;;;;24.83;4.10;;;;;;;1.95;89.54;100723.16;5053840;28;20029;-80
2021/12/07 04:08:33;;;;;;;22.07;4.40;;;;;;;1.96;89.40;100704.34;5055652;28;20471;-79
2021/12/07 04:11:00;;;;;;;22.20;4.20;;;;;;;1.96;89.57;100708.66;5054894;28;20020;-79
2021/12/07 04:13:25;;;;;;;20.10;4.13;;;;;;;1.96;89.53;100714.63;5053556;28;20021;-79
2021/12/07 04:15:52;;;;;;;26.27;4.30;;;;;;;1.97;89.11;100713.78;5051244;28;20057;-79
2021/12/07 04:18:17;;;;;;;27.40;4.03;;;;;;;1.96;89.67;100724.88;5052109;28;20032;-79
2021/12/07 04:20:43;;;;;;;27.80;5.13;;;;;;;1.95;89.51;100728.28;5050513;28;20037;-79
2021/12/07 04:23:08;;;;;;;22.30;3.60;;;;;;;1.93;89.28;100735.13;5051898;28;20048;-80
2021/12/07 04:25:34;;;;;;;29.87;4.10;;;;;;;1.92;89.56;100728.25;5054504;28;20029;-79
2021/12/07 04:28:00;;;;;;;22.80;4.00;;;;;;;1.90;89.41;100742.78;5053134;28;20090;-80
2021/12/07 04:30:32;;;;;;;29.00;4.00;;;;;;;1.89;89.41;100730.78;5033562;28;20021;-79
2021/12/07 04:33:00;;;;;;;22.17;4.10;;;;;;;1.89;89.44;100727.38;5051760;28;20075;-79
2021/12/07 04:35:27;;;;;;;22.07;4.50;;;;;;;1.88;89.46;100741.91;5034385;28;20437;-79
2021/12/07 04:37:52;;;;;;;20.07;4.10;;;;;;;1.86;89.27;100746.19;5051371;28;20086;-79
2021/12/07 04:40:21;;;;;;;30.93;4.70;;;;;;;1.87;89.37;100744.47;5049286;28;20505;-79
2021/12/07 04:42:47;;;;;;;25.00;4.23;;;;;;;1.87;89.34;100744.47;5049643;28;20048;-79
2021/12/07 04:48:05;;;;;;;21.23;3.87;;;;;;;1.85;89.63;100761.56;5053477;28;20021;-80
2021/12/07 04:58:06;;;;;;;18.60;3.90;;;;;;;1.75;88.72;100763.16;5051238;28;20029;-79
2021/12/07 05:00:32;;;;;;;20.80;4.07;;;;;;;1.74;88.63;100764.88;5050306;28;20021;-79
2021/12/07 05:03:02;;;;;;;16.43;3.73;;;;;;;1.71;88.88;100758.88;5049114;28;20408;-79
2021/12/07 05:05:35;;;;;;;18.47;4.27;;;;;;;1.67;88.75;100769.09;5033137;28;20033;-80
2021/12/07 05:08:04;;;;;;;20.67;4.30;;;;;;;1.67;88.94;100781.06;5051364;28;20020;-79
2021/12/07 05:24:26;;;;;;;19.83;4.10;;;;;;;1.58;88.74;100810.03;5050674;28;20043;-79
2021/12/07 05:39:48;;;;;;;15.07;3.43;;;;;;;1.49;88.36;100817.63;5050876;28;20047;-79
2021/12/07 05:42:14;;;;;;;15.73;3.57;;;;;;;1.48;88.47;100826.16;5051725;28;20037;-80
2021/12/07 05:44:40;;;;;;;18.27;4.13;;;;;;;1.45;88.37;100818.44;5051458;28;20025;-79
2021/12/07 05:47:06;;;;;;;19.47;3.87;;;;;;;1.42;88.24;100829.50;5049711;28;20024;-80
2021/12/07 05:49:31;;;;;;;16.87;3.93;;;;;;;1.39;88.45;100833.72;5050219;28;20122;-79
2021/12/07 05:51:57;;;;;;;17.97;3.80;;;;;;;1.36;88.39;100855.94;5049095;28;20024;-80
2021/12/07 05:54:22;;;;;;;21.57;4.53;;;;;;;1.33;88.41;100858.47;5051528;28;20039;-79
2021/12/07 05:56:47;;;;;;;19.67;3.80;;;;;;;1.32;88.61;100864.44;5050454;28;20021;-79
2021/12/07 05:59:13;;;;;;;16.87;3.97;;;;;;;1.32;88.78;100869.56;5053532;28;20066;-79
2021/12/07 06:01:38;;;;;;;18.17;3.90;;;;;;;1.29;88.82;100874.63;5054133;28;20103;-80
2021/12/07 06:04:04;;;;;;;17.83;3.87;;;;;;;1.26;88.89;100873.75;5050184;28;20021;-79
2021/12/07 06:06:29;;;;;;;16.63;3.70;;;;;;;1.27;88.71;100875.47;5050650;28;20502;-79
2021/12/07 06:08:54;;;;;;;15.67;4.13;;;;;;;1.23;89.06;100869.41;5050600;28;20111;-80
2021/12/07 06:11:22;;;;;;;18.47;4.93;;;;;;;1.23;88.72;100876.25;5049901;28;20094;-79
2021/12/07 06:13:47;;;;;;;21.97;5.37;;;;;;;1.22;89.13;100872.81;5030907;28;20031;-80
2021/12/07 06:16:15;;;;;;;22.70;5.57;;;;;;;1.21;89.26;100871.97;5049682;28;20025;-79
2021/12/07 06:18:40;;;;;;;18.83;5.60;;;;;;;1.21;89.19;100876.22;5030351;28;20392;-79
2021/12/07 06:21:06;;;;;;;24.77;5.90;;;;;;;1.19;88.96;100867.69;5052361;28;20027;-80
2021/12/07 06:23:31;;;;;;;23.23;5.80;;;;;;;1.20;89.52;100860.00;5031648;28;20396;-79
2021/12/07 06:25:58;;;;;;;21.47;6.30;;;;;;;1.19;89.36;100862.56;5051382;28;20043;-80
2021/12/07 06:28:23;;;;;;;24.80;6.60;;;;;;;1.16;89.26;100865.06;5052362;28;20032;-79
2021/12/07 06:30:49;;;;;;;21.30;6.70;;;;;;;1.17;89.55;100869.34;5052941;28;20498;-79
2021/12/07 06:33:17;;;;;;;22.30;6.97;;;;;;;1.16;89.24;100863.34;5050783;28;20036;-79
2021/12/07 06:35:43;;;;;;;25.47;7.00;;;;;;;1.15;89.41;100871.88;5052353;28;20020;-80
2021/12/07 06:38:09;;;;;;;23.87;7.20;;;;;;;1.15;89.38;100876.16;5054104;28;20028;-79
2021/12/07 06:40:35;;;;;;;22.87;6.87;;;;;;;1.13;89.35;100876.13;5050587;28;20032;-79
2021/12/07 06:43:00;;;;;;;25.80;7.30;;;;;;;1.12;89.68;100879.53;5049998;28;20110;-79
2021/12/07 06:45:27;;;;;;;24.10;6.97;;;;;;;1.12;89.24;100886.38;5050342;28;20028;-79
2021/12/07 06:47:53;;;;;;;23.93;6.97;;;;;;;1.10;89.59;100876.09;5051855;28;20217;-80
2021/12/07 06:50:19;;;;;;;20.53;6.97;;;;;;;1.08;89.45;100874.34;5055208;28;20391;-79
2021/12/07 06:52:44;;;;;;;25.27;7.33;;;;;;;1.08;89.32;100879.47;5051439;28;20041;-80
2021/12/07 06:55:10;;;;;;;27.83;6.90;;;;;;;1.05;89.21;100875.16;5051070;28;20037;-79
2021/12/07 06:57:35;;;;;;;21.57;7.37;;;;;;;1.02;89.33;100881.13;5050955;28;20024;-79
2021/12/07 07:00:02;;;;;;;25.60;6.97;;;;;;;1.02;89.25;100898.19;5049834;28;20029;-79
2021/12/07 07:02:28;;;;;;;25.50;6.87;;;;;;;0.99;89.31;100904.13;5050365;28;20369;-79
2021/12/07 07:04:53;;;;;;;24.57;7.13;;;;;;;1.00;89.58;100890.47;5054363;28;20032;-79
2021/12/07 07:07:22;;;;;;;27.47;7.87;;;;;;;0.99;89.48;100896.44;5050699;28;20028;-79
2021/12/07 07:09:47;;;;;;;29.27;7.37;;;;;;;0.98;89.55;100899.84;5032702;28;20031;-79
2021/12/07 07:12:12;;;;;;;23.70;8.30;;;;;;;0.95;89.64;100904.91;5051096;28;20103;-79
2021/12/07 07:14:38;;;;;;;27.70;8.00;;;;;;;0.97;89.65;100913.50;5051081;28;20053;-79
2021/12/07 07:17:03;;;;;;;25.47;8.07;;;;;;;0.97;89.69;100904.94;5049513;28;20379;-79
2021/12/07 07:19:28;;;;;;;23.03;7.57;;;;;;;0.95;89.80;100915.16;5055230;28;20029;-79
2021/12/07 07:21:54;;;;;;;22.90;8.30;;;;;;;0.94;89.77;100905.75;5051155;28;20044;-79
2021/12/07 07:24:19;;;;;;;25.87;8.20;;;;;;;0.95;89.76;100904.91;5051652;28;20025;-79
2021/12/07 07:26:44;;;;;;;34.60;9.00;;;;;;;0.93;89.99;100904.03;5054355;28;20044;-79
2021/12/07 07:29:09;;;;;;;23.10;8.60;;;;;;;0.91;89.39;100898.00;5055061;28;20502;-79
2021/12/07 07:31:40;;;;;;;30.20;9.17;;;;;;;0.92;89.64;100902.31;5062722;28;20028;-79
2021/12/07 07:34:05;;;;;;;26.63;8.67;;;;;;;0.89;89.70;100903.13;5075119;28;20024;-79
2021/12/07 07:36:30;;;;;;;28.27;8.90;;;;;;;0.88;89.70;100903.97;5060100;28;20482;-79
2021/12/07 07:38:56;;;;;;;24.20;9.23;;;;;;;0.85;89.52;100901.34;5054947;28;20087;-79
2021/12/07 07:41:21;;;;;;;26.93;8.57;;;;;;;0.85;89.52;100910.75;5053232;28;20496;-79
2021/12/07 07:43:46;;;;;;;26.13;8.90;;;;;;;0.84;89.35;100911.59;5054747;28;20120;-79
2021/12/07 07:46:12;;;;;;;29.20;8.77;;;;;;;0.86;89.71;100920.13;5055821;28;20029;-79
2021/12/07 07:48:37;;;;;;;27.70;8.43;;;;;;;0.85;89.90;100928.69;5054447;28;20036;-79
2021/12/07 07:51:02;;;;;;;27.93;8.83;;;;;;;0.86;89.93;100925.25;5053916;28;20032;-79
2021/12/07 07:53:28;;;;;;;25.33;8.27;;;;;;;0.84;89.96;100922.69;5054761;28;20380;-79
2021/12/07 07:55:53;;;;;;;27.60;8.70;;;;;;;0.83;89.61;100913.28;5056022;28;20372;-79
2021/12/07 07:58:19;;;;;;;30.27;9.07;;;;;;;0.86;89.96;100922.69;5054535;28;20026;-79
2021/12/07 08:00:46;;;;;;;28.40;8.97;;;;;;;0.86;89.74;100910.75;5054038;28;20048;-79
2021/12/07 08:03:12;;;;;;;30.67;9.17;;;;;;;0.88;90.13;100910.78;5053848;28;20032;-79
2021/12/07 08:05:38;;;;;;;29.30;8.67;;;;;;;0.87;89.72;100906.47;5054054;28;20112;-79
2021/12/07 08:08:03;;;;;;;27.90;9.30;;;;;;;0.89;89.97;100897.13;5053348;28;20028;-79
2021/12/07 08:10:29;;;;;;;22.77;8.20;;;;;;;0.89;90.11;100899.69;5035988;28;20028;-80
2021/12/07 08:13:00;;;;;;;29.00;8.97;;;;;;;0.89;89.68;100894.56;5054704;28;20056;-80
2021/12/07 08:15:27;;;;;;;29.30;8.95;;;;;;;0.93;89.89;100901.47;5054352;28;20028;-79
2021/12/07 08:17:52;;;;;;;23.43;8.00;;;;;;;0.94;89.88;100902.34;5053921;28;20024;-80
2021/12/07 08:20:18;;;;;;;27.77;8.33;;;;;;;0.96;89.93;100908.31;5053440;28;20087;-79
2021/12/07 08:22:43;;;;;;;24.67;7.83;;;;;;;0.98;89.88;100909.22;5058710;28;20540;-80
2021/12/07 08:25:09;;;;;;;25.33;8.00;;;;;;;0.99;89.79;100899.00;5054210;28;20078;-79
2021/12/07 08:27:34;;;;;;;26.07;8.00;;;;;;;1.02;89.87;100901.63;5057899;28;20413;-79
2021/12/07 08:30:00;;;;;;;25.97;8.63;;;;;;;1.05;89.83;100904.19;5047938;28;20028;-81
2021/12/07 08:32:25;;;;;;;25.10;7.77;;;;;;;1.09;89.62;100914.50;5027999;28;20123;-80
2021/12/07 08:34:51;;;;;;;26.83;7.80;;;;;;;1.12;90.07;100914.53;5046221;28;20024;-80
2021/12/07 08:37:16;;;;;;;30.43;7.77;;;;;;;1.16;90.03;100918.88;5045975;28;20567;-80
2021/12/07 08:39:41;;;;;;;28.97;7.60;;;;;;;1.20;89.66;100923.19;5045759;28;20037;-80
2021/12/07 08:42:07;;;;;;;30.27;7.83;;;;;;;1.24;89.88;100922.41;5046365;28;20368;-79
2021/12/07 08:44:32;;;;;;;32.90;8.07;;;;;;;1.28;89.86;100918.19;5047591;28;20025;-80
2021/12/07 08:46:58;;;;;;;23.97;8.03;;;;;;;1.31;89.82;100918.22;5046980;28;20108;-80
2021/12/07 08:49:24;;;;;;;22.00;7.43;;;;;;;1.33;89.87;100925.09;5046287;28;20028;-80
2021/12/07 08:51:51;;;;;;;20.37;7.57;;;;;;;1.35;89.75;100931.13;5029115;28;20029;-81
2021/12/07 08:54:29;;;;;;;21.00;6.83;;;;;;;1.35;89.66;100920.88;5046499;28;20048;-80
2021/12/07 08:59:46;;;;;;;24.57;7.13;;;;;;;1.39;89.54;100928.56;5046361;28;20270;-80
2021/12/07 09:02:18;;;;;;;22.67;6.97;;;;;;;1.40;89.67;100922.59;5046815;28;20108;-80
2021/12/07 09:04:44;;;;;;;26.90;7.53;;;;;;;1.42;89.51;100920.94;5047068;28;20029;-80
2021/12/07 09:07:10;;;;;;;22.37;6.77;;;;;;;1.43;89.24;100908.16;5046836;28;20078;-80
2021/12/07 09:09:36;;;;;;;19.90;6.67;;;;;;;1.46;89.00;100904.75;5048322;28;20033;-81
2021/12/07 09:12:06;;;;;;;19.10;5.90;;;;;;;1.49;89.21;100912.50;5044714;28;20063;-80
2021/12/07 09:14:33;;;;;;;25.03;7.30;;;;;;;1.51;89.20;100903.13;5046188;28;20075;-80
2021/12/07 09:16:59;;;;;;;22.77;6.70;;;;;;;1.56;89.07;100905.72;5046000;28;20071;-80
2021/12/07 09:19:24;;;;;;;23.07;6.67;;;;;;;1.59;89.05;100906.63;5028674;28;20492;-80
2021/12/07 09:21:50;;;;;;;23.00;6.83;;;;;;;1.62;89.22;100893.84;5045708;28;20487;-80
2021/12/07 09:24:15;;;;;;;23.47;6.83;;;;;;;1.66;89.20;100899.84;5048244;28;20112;-80
2021/12/07 09:26:41;;;;;;;16.53;5.87;;;;;;;1.69;89.10;100901.63;5045846;28;20357;-81
2021/12/07 09:29:06;;;;;;;24.27;6.23;;;;;;;1.72;89.37;100909.31;5049374;28;20482;-81
2021/12/07 09:31:33;;;;;;;17.00;5.63;;;;;;;1.74;89.04;100907.63;5047128;28;20024;-81
2021/12/07 09:33:59;;;;;;;22.43;7.10;;;;;;;1.76;89.13;100908.53;5039802;28;21549;-81
2021/12/07 09:36:25;;;;;;;23.40;6.40;;;;;;;1.77;89.10;100912.81;5045405;28;20032;-80
2021/12/07 09:38:51;;;;;;;22.30;6.03;;;;;;;1.77;88.91;100923.06;5045253;28;20119;-81
2021/12/07 09:41:17;;;;;;;19.87;6.40;;;;;;;1.80;88.94;100912.84;5045935;28;20059;-81
2021/12/07 09:43:43;;;;;;;19.07;5.93;;;;;;;1.82;88.93;100921.44;5045485;28;20044;-81
2021/12/07 09:46:09;;;;;;;20.17;6.70;;;;;;;1.87;89.44;100908.66;5046136;28;20041;-80
2021/12/07 09:48:35;;;;;;;18.27;6.40;;;;;;;1.88;89.43;100902.69;5044483;28;20536;-81
2021/12/07 09:51:02;;;;;;;19.47;6.23;;;;;;;1.91;89.32;100907.84;5045793;28;20033;-80
2021/12/07 09:53:29;;;;;;;17.93;5.90;;;;;;;1.93;89.11;100898.47;5044356;28;20350;-80
2021/12/07 09:55:56;;;;;;;24.17;6.40;;;;;;;1.96;89.08;100904.47;5043193;28;20024;-81
2021/12/07 09:58:22;;;;;;;21.80;7.17;;;;;;;2.00;88.94;100905.38;5043107;28;20021;-81
2021/12/07 10:00:48;;;;;;;24.60;6.93;;;;;;;2.04;88.78;100911.41;5045537;28;20024;-80
2021/12/07 10:03:15;;;;;;;19.80;6.27;;;;;;;2.06;88.71;100907.13;5045284;28;20060;-80
2021/12/07 10:05:41;;;;;;;17.97;6.00;;;;;;;2.10;88.47;100911.47;5026120;28;20025;-81
2021/12/07 10:08:07;;;;;;;18.90;6.23;;;;;;;2.11;88.51;100898.66;5042372;28;20079;-81
2021/12/07 10:10:34;;;;;;;18.60;6.17;;;;;;;2.15;88.50;100893.53;5043119;28;20025;-80
2021/12/07 10:13:02;;;;;;;21.93;6.10;;;;;;;2.17;88.57;100900.41;5043391;28;20033;-81
2021/12/07 10:15:28;;;;;;;22.57;6.00;;;;;;;2.19;88.49;100901.31;5043714;28;20041;-81
2021/12/07 10:18:08;;;;;;;21.90;6.33;;;;;;;2.23;88.22;100910.72;5042215;28;20525;-81
2021/12/07 10:20:42;;;;;;;19.43;6.43;;;;;;;2.26;88.38;100910.75;5025317;28;20388;-81
2021/12/07 10:23:13;;;;;;;25.90;6.80;;;;;;;2.29;88.32;100894.56;5042432;28;20268;-80
2021/12/07 10:25:40;;;;;;;22.30;7.15;;;;;;;2.33;88.46;100883.44;5039806;28;20033;-80
2021/12/07 10:28:23;;;;;;;21.03;7.40;;;;;;;2.39;88.67;100883.50;5042641;28;20029;-81
2021/12/07 10:30:49;;;;;;;16.87;6.80;;;;;;;2.39;88.28;100873.22;5043810;28;20033;-80
2021/12/07 10:33:16;;;;;;;19.20;7.03;;;;;;;2.42;88.06;100880.97;5043965;28;20036;-81
2021/12/07 10:35:41;;;;;;;20.33;7.03;;;;;;;2.48;88.62;100884.41;5043708;28;20519;-80
2021/12/07 10:38:10;;;;;;;20.43;6.90;;;;;;;2.51;88.66;100885.31;5043198;28;20098;-80
2021/12/07 10:40:36;;;;;;;23.70;7.50;;;;;;;2.53;88.27;100870.78;5044314;28;20095;-81
2021/12/07 10:43:01;;;;;;;20.13;6.40;;;;;;;2.56;87.66;100859.66;5043308;28;20520;-81
2021/12/07 10:45:29;;;;;;;19.27;6.47;;;;;;;2.62;87.93;100864.00;5045444;28;20107;-80
2021/12/07 10:47:54;;;;;;;21.10;6.47;;;;;;;2.65;87.60;100864.00;5043849;28;20033;-80
2021/12/07 10:50:20;;;;;;;21.23;6.23;;;;;;;2.68;87.32;100853.78;5043993;28;20533;-81
2021/12/07 10:52:45;;;;;;;16.93;5.50;;;;;;;2.70;87.08;100846.94;5044231;28;20394;-81
2021/12/07 10:55:21;;;;;;;18.07;5.53;;;;;;;2.75;86.91;100839.25;5044773;28;20033;-80
2021/12/07 10:57:54;;;;;;;22.33;6.33;;;;;;;2.79;87.41;100839.28;5044397;28;20017;-81
2021/12/07 11:00:30;;;;;;;20.10;6.30;;;;;;;2.86;87.34;100840.16;5045957;28;20040;-81
2021/12/07 11:02:58;;;;;;;17.17;6.20;;;;;;;2.91;87.04;100835.06;5047803;28;20061;-81
2021/12/07 11:05:36;;;;;;;21.47;6.20;;;;;;;2.95;86.83;100827.38;5047700;28;20033;-81
2021/12/07 11:08:05;;;;;;;22.23;6.07;;;;;;;2.97;86.53;100820.56;5046394;28;20368;-80
2021/12/07 11:10:34;;;;;;;21.63;6.20;;;;;;;3.03;87.15;100823.13;5028889;28;20087;-81
2021/12/07 11:13:19;;;;;;;20.30;5.90;;;;;;;3.08;87.28;100807.72;5047092;28;20040;-81
2021/12/07 11:15:50;;;;;;;20.77;5.80;;;;;;;3.12;86.55;100794.03;5029542;28;20033;-81
2021/12/07 11:18:17;;;;;;;19.45;5.78;;;;;;;3.17;86.34;100792.38;5029635;28;20435;-80
2021/12/07 11:20:43;;;;;;;17.03;6.20;;;;;;;3.24;87.08;100787.25;5046014;28;20438;-80
2021/12/07 11:23:12;;;;;;;16.77;5.50;;;;;;;3.27;85.96;100794.94;5047611;28;20028;-81
2021/12/07 11:29:39;;;;;;;16.07;5.20;;;;;;;3.34;86.33;100789.00;5048317;28;20037;-81
2021/12/07 11:31:37;;;;;;;17.97;5.33;;;;;;;3.45;85.46;100782.16;5046768;28;20076;-81
2021/12/07 11:34:12;;;;;;;14.10;4.63;;;;;;;3.51;85.47;100781.31;5047697;28;20024;-81
2021/12/07 11:37:01;;;;;;;19.83;5.77;;;;;;;3.58;85.07;100777.06;5047177;28;20052;-81
2021/12/07 11:39:37;;;;;;;20.37;5.33;;;;;;;3.61;85.23;100777.03;5047589;28;20134;-81
2021/12/07 11:42:13;;;;;;;16.57;4.73;;;;;;;3.66;84.07;100777.06;5047341;28;20168;-81
2021/12/07 11:44:49;;;;;;;17.30;5.17;;;;;;;3.71;84.47;100777.91;5046061;28;20132;-81
2021/12/07 11:47:14;;;;;;;17.77;4.47;;;;;;;3.74;83.10;100777.94;5047569;28;20037;-80
2021/12/07 11:49:40;;;;;;;16.47;4.50;;;;;;;3.76;82.67;100776.22;5046777;28;20029;-80
2021/12/07 11:52:08;;;;;;;17.63;4.50;;;;;;;3.79;82.36;100769.34;5047385;28;20368;-81
2021/12/07 11:54:40;;;;;;;15.27;4.70;;;;;;;3.84;82.50;100764.25;5047225;28;20028;-81
2021/12/07 11:57:11;;;;;;;14.93;4.50;;;;;;;3.90;82.70;100763.38;5047177;28;20714;-81
2021/12/07 11:59:37;;;;;;;15.80;4.03;;;;;;;3.92;80.73;100769.38;5046859;28;20044;-81
2021/12/07 12:02:02;;;;;;;14.30;4.13;;;;;;;3.92;80.23;100756.53;5046365;28;20036;-81
2021/12/07 12:04:28;;;;;;;16.03;4.57;;;;;;;3.94;80.81;100747.94;5047118;28;20041;-81
2021/12/07 12:06:56;;;;;;;12.53;4.20;;;;;;;3.99;79.64;100753.06;5047702;28;20039;-81
2021/12/07 12:09:23;;;;;;;17.23;4.50;;;;;;;4.05;80.65;100745.34;5046566;28;20025;-81
2021/12/07 12:11:53;;;;;;;14.73;4.23;;;;;;;4.08;79.11;100745.38;5046459;28;20051;-81
2021/12/07 12:14:38;;;;;;;14.93;4.10;;;;;;;4.14;79.03;100730.75;5048206;28;20036;-81
2021/12/07 12:17:07;;;;;;;15.30;4.87;;;;;;;4.17;79.78;100731.63;5045705;28;20029;-81
2021/12/07 12:19:58;;;;;;;16.27;5.00;;;;;;;4.20;80.04;100723.03;5046778;28;20122;-81
2021/12/07 12:22:40;;;;;;;13.37;4.30;;;;;;;4.25;80.63;100716.16;5047108;28;20059;-81
2021/12/07 12:25:13;;;;;;;15.33;4.10;;;;;;;4.25;79.58;100723.88;5047307;28;20075;-81
2021/12/07 12:27:40;;;;;;;12.43;3.93;;;;;;;4.27;79.58;100711.84;5046695;28;20029;-81
2021/12/07 12:30:29;;;;;;;15.07;4.37;;;;;;;4.29;78.74;100712.69;5046411;28;20689;-81
2021/12/07 12:33:06;;;;;;;14.23;4.37;;;;;;;4.35;79.54;100711.84;5046854;28;20048;-81
2021/12/07 12:35:41;;;;;;;17.10;4.13;;;;;;;4.36;79.73;100691.22;5042486;28;20055;-81
2021/12/07 12:38:28;;;;;;;12.90;4.10;;;;;;;4.40;78.78;100692.06;5028075;28;20021;-81
2021/12/07 12:41:09;;;;;;;19.40;4.23;;;;;;;4.40;78.34;100685.22;5046238;28;20036;-81
2021/12/07 12:43:41;;;;;;;12.68;4.15;;;;;;;4.43;78.82;100686.06;5046696;28;20049;-81
2021/12/07 12:46:07;;;;;;;;;;;;;;;4.51;80.42;100687.78;5047243;28;20491;-81
2021/12/07 12:48:33;;;;;;;16.03;3.80;;;;;;;4.46;78.11;100688.63;5048523;28;19917;-81
2021/12/07 12:50:59;;;;;;;14.63;3.93;;;;;;;4.47;77.86;100677.47;5011447;28;20429;-81
2021/12/07 12:53:31;;;;;;;15.93;3.57;;;;;;;4.49;77.65;100675.72;5045295;28;20037;-81
2021/12/07 12:56:00;;;;;;;14.53;3.53;;;;;;;4.47;78.63;100665.44;5023120;28;20475;-81
2021/12/07 12:58:28;;;;;;;16.93;4.23;;;;;;;4.47;78.37;100656.84;5044737;28;20036;-81
2021/12/07 13:01:20;;;;;;;15.57;3.77;;;;;;;4.50;77.86;100654.25;5045538;28;20110;-81
2021/12/07 13:03:57;;;;;;;11.35;3.38;;;;;;;4.52;78.68;100634.50;5045568;28;20542;-81
2021/12/07 13:06:46;;;;;;;14.70;3.33;;;;;;;4.50;77.87;100621.66;5045911;28;20048;-81
2021/12/07 13:09:17;;;;;;;13.07;3.20;;;;;;;4.45;77.74;100607.06;5044895;28;20029;-81